sensor_id;sensor_type;location;lat;lon;timestamp;pressure;altitude;pressure_sealevel;temperature;humidity
23059;BME280;30585;51.502;7.218;2023-09-19T00:00:35;99888.94;;;15.65;82.52
23059;BME280;30585;51.502;7.218;2023-09-19T00:03:03;99895.56;;;15.62;82.08
23059;BME280;30585;51.502;7.218;2023-09-19T00:05:34;99907.56;;;15.52;81.62
23059;BME280;30585;51.502;7.218;2023-09-19T00:08:02;99924.13;;;15.40;81.52
23059;BME280;30585;51.502;7.218;2023-09-19T00:10:31;99919.44;;;15.51;81.46
23059;BME280;30585;51.502;7.218;2023-09-19T00:13:02;99920.94;;;15.45;80.38
23059;BME280;30585;51.502;7.218;2023-09-19T00:15:38;99891.31;;;15.34;80.34
23059;BME280;30585;51.502;7.218;2023-09-19T00:18:07;99913.22;;;15.32;80.32
23059;BME280;30585;51.502;7.218;2023-09-19T00:20:36;99931.38;;;15.32;79.94
23059;BME280;30585;51.502;7.218;2023-09-19T00:23:05;99914.06;;;15.33;79.74
23059;BME280;30585;51.502;7.218;2023-09-19T00:25:35;99889.25;;;15.10;79.69
23059;BME280;30585;51.502;7.218;2023-09-19T00:28:04;99919.81;;;15.30;79.77
23059;BME280;30585;51.502;7.218;2023-09-19T00:30:34;99928.75;;;15.22;80.22
23059;BME280;30585;51.502;7.218;2023-09-19T00:33:04;99929.38;;;15.16;80.33
23059;BME280;30585;51.502;7.218;2023-09-19T00:35:34;99928.00;;;15.12;80.43
23059;BME280;30585;51.502;7.218;2023-09-19T00:38:03;99928.31;;;15.09;80.73
23059;BME280;30585;51.502;7.218;2023-09-19T00:40:33;99906.09;;;14.96;80.52
23059;BME280;30585;51.502;7.218;2023-09-19T00:43:02;99785.88;;;14.32;80.67
23059;BME280;30585;51.502;7.218;2023-09-19T00:45:30;99926.44;;;15.10;80.72
23059;BME280;30585;51.502;7.218;2023-09-19T00:48:01;99936.94;;;15.04;81.07
23059;BME280;30585;51.502;7.218;2023-09-19T00:50:31;99933.44;;;14.94;80.96
23059;BME280;30585;51.502;7.218;2023-09-19T00:52:59;99949.28;;;14.99;81.02
23059;BME280;30585;51.502;7.218;2023-09-19T00:55:29;99947.50;;;14.90;80.63
23059;BME280;30585;51.502;7.218;2023-09-19T00:57:59;99951.94;;;14.91;80.98
23059;BME280;30585;51.502;7.218;2023-09-19T01:00:28;99947.50;;;14.90;80.64
23059;BME280;30585;51.502;7.218;2023-09-19T01:02:57;99944.78;;;14.90;79.84
23059;BME280;30585;51.502;7.218;2023-09-19T01:05:24;99955.00;;;14.96;80.19
23059;BME280;30585;51.502;7.218;2023-09-19T01:07:54;99960.09;;;14.91;80.06
23059;BME280;30585;51.502;7.218;2023-09-19T01:10:22;99962.56;;;14.84;79.65
23059;BME280;30585;51.502;7.218;2023-09-19T01:12:55;99914.97;;;14.62;79.89
23059;BME280;30585;51.502;7.218;2023-09-19T01:15:40;99971.56;;;14.85;79.51
23059;BME280;30585;51.502;7.218;2023-09-19T01:18:17;99977.00;;;14.85;79.95
23059;BME280;30585;51.502;7.218;2023-09-19T01:20:56;99970.25;;;14.89;79.40
23059;BME280;30585;51.502;7.218;2023-09-19T01:23:39;99969.16;;;14.82;80.05
23059;BME280;30585;51.502;7.218;2023-09-19T01:26:26;99973.88;;;14.80;79.72
23059;BME280;30585;51.502;7.218;2023-09-19T01:29:13;99983.50;;;14.74;80.20
23059;BME280;30585;51.502;7.218;2023-09-19T01:31:47;99971.78;;;14.74;79.92
23059;BME280;30585;51.502;7.218;2023-09-19T01:34:16;99986.91;;;14.76;80.11
23059;BME280;30585;51.502;7.218;2023-09-19T01:36:44;99980.06;;;14.72;80.44
23059;BME280;30585;51.502;7.218;2023-09-19T01:39:12;99979.44;;;14.60;80.10
23059;BME280;30585;51.502;7.218;2023-09-19T01:41:54;99984.59;;;14.63;80.35
23059;BME280;30585;51.502;7.218;2023-09-19T01:44:29;99989.56;;;14.68;80.33
23059;BME280;30585;51.502;7.218;2023-09-19T01:47:05;99835.84;;;13.67;80.37
23059;BME280;30585;51.502;7.218;2023-09-19T01:49:42;99886.38;;;13.95;80.12
23059;BME280;30585;51.502;7.218;2023-09-19T01:52:13;99998.31;;;14.62;79.83
23059;BME280;30585;51.502;7.218;2023-09-19T01:54:47;100005.59;;;14.61;80.06
23059;BME280;30585;51.502;7.218;2023-09-19T01:57:26;99960.72;;;14.30;80.20
23059;BME280;30585;51.502;7.218;2023-09-19T02:00:00;100000.78;;;14.55;79.96
23059;BME280;30585;51.502;7.218;2023-09-19T02:02:35;99999.06;;;14.54;79.70
23059;BME280;30585;51.502;7.218;2023-09-19T02:05:04;100001.06;;;14.52;80.21
23059;BME280;30585;51.502;7.218;2023-09-19T02:07:32;100000.06;;;14.53;79.76
23059;BME280;30585;51.502;7.218;2023-09-19T02:10:05;99960.31;;;14.25;79.67
23059;BME280;30585;51.502;7.218;2023-09-19T02:12:33;100004.78;;;14.51;79.54
23059;BME280;30585;51.502;7.218;2023-09-19T02:15:02;100003.16;;;14.41;79.48
23059;BME280;30585;51.502;7.218;2023-09-19T02:17:34;99973.50;;;14.20;79.52
23059;BME280;30585;51.502;7.218;2023-09-19T02:20:03;99987.44;;;14.34;80.13
23059;BME280;30585;51.502;7.218;2023-09-19T02:22:37;100007.22;;;14.17;79.24
23059;BME280;30585;51.502;7.218;2023-09-19T02:25:06;100015.13;;;14.38;79.62
23059;BME280;30585;51.502;7.218;2023-09-19T02:27:34;99797.00;;;13.02;79.77
23059;BME280;30585;51.502;7.218;2023-09-19T02:30:03;100007.16;;;14.27;79.85
23059;BME280;30585;51.502;7.218;2023-09-19T02:32:32;100028.00;;;14.36;79.40
23059;BME280;30585;51.502;7.218;2023-09-19T02:35:06;100031.22;;;14.22;79.74
23059;BME280;30585;51.502;7.218;2023-09-19T02:37:34;100033.75;;;14.23;79.51
23059;BME280;30585;51.502;7.218;2023-09-19T02:40:03;100025.22;;;14.18;79.70
23059;BME280;30585;51.502;7.218;2023-09-19T02:42:46;100035.22;;;14.18;79.59
23059;BME280;30585;51.502;7.218;2023-09-19T02:45:16;100008.16;;;13.98;80.31
23059;BME280;30585;51.502;7.218;2023-09-19T02:47:45;100034.50;;;14.16;80.11
23059;BME280;30585;51.502;7.218;2023-09-19T02:50:15;100039.53;;;14.11;80.00
23059;BME280;30585;51.502;7.218;2023-09-19T02:52:45;100038.66;;;14.20;79.79
23059;BME280;30585;51.502;7.218;2023-09-19T02:55:14;100031.81;;;14.16;79.66
23059;BME280;30585;51.502;7.218;2023-09-19T02:57:46;100048.22;;;14.14;80.13
23059;BME280;30585;51.502;7.218;2023-09-19T03:00:14;100049.78;;;14.17;79.79
23059;BME280;30585;51.502;7.218;2023-09-19T03:02:42;100056.25;;;14.06;80.05
23059;BME280;30585;51.502;7.218;2023-09-19T03:05:11;100045.66;;;14.13;79.71
23059;BME280;30585;51.502;7.218;2023-09-19T03:07:40;100061.22;;;14.11;79.27
23059;BME280;30585;51.502;7.218;2023-09-19T03:10:09;100059.22;;;14.13;79.20
23059;BME280;30585;51.502;7.218;2023-09-19T03:12:37;100061.78;;;14.14;79.01
23059;BME280;30585;51.502;7.218;2023-09-19T03:15:07;100065.94;;;14.09;78.75
23059;BME280;30585;51.502;7.218;2023-09-19T03:17:36;100072.09;;;14.11;77.98
23059;BME280;30585;51.502;7.218;2023-09-19T03:20:05;100066.81;;;14.09;77.43
23059;BME280;30585;51.502;7.218;2023-09-19T03:22:35;100063.22;;;14.09;77.66
23059;BME280;30585;51.502;7.218;2023-09-19T03:25:05;100067.66;;;14.10;77.03
23059;BME280;30585;51.502;7.218;2023-09-19T03:27:34;100071.81;;;14.04;77.63
23059;BME280;30585;51.502;7.218;2023-09-19T03:30:03;100056.44;;;13.95;76.56
23059;BME280;30585;51.502;7.218;2023-09-19T03:32:35;100041.56;;;13.99;76.08
23059;BME280;30585;51.502;7.218;2023-09-19T03:35:03;100078.50;;;14.10;76.19
23059;BME280;30585;51.502;7.218;2023-09-19T03:37:32;100001.13;;;13.59;76.17
23059;BME280;30585;51.502;7.218;2023-09-19T03:40:00;100064.53;;;14.04;75.89
23059;BME280;30585;51.502;7.218;2023-09-19T03:42:33;100071.41;;;13.99;76.07
23059;BME280;30585;51.502;7.218;2023-09-19T03:45:03;100074.41;;;13.96;76.28
23059;BME280;30585;51.502;7.218;2023-09-19T03:47:32;100070.00;;;13.85;76.70
23059;BME280;30585;51.502;7.218;2023-09-19T03:50:00;100103.41;;;13.95;76.32
23059;BME280;30585;51.502;7.218;2023-09-19T03:52:27;100063.72;;;13.94;76.65
23059;BME280;30585;51.502;7.218;2023-09-19T03:54:55;100076.56;;;13.92;76.69
23059;BME280;30585;51.502;7.218;2023-09-19T03:57:23;100070.44;;;13.90;76.62
23059;BME280;30585;51.502;7.218;2023-09-19T03:59:52;100071.72;;;13.86;76.57
23059;BME280;30585;51.502;7.218;2023-09-19T04:02:20;100076.00;;;13.89;76.58
23059;BME280;30585;51.502;7.218;2023-09-19T04:04:50;100076.44;;;13.84;75.93
23059;BME280;30585;51.502;7.218;2023-09-19T04:07:19;100073.56;;;13.86;77.11
23059;BME280;30585;51.502;7.218;2023-09-19T04:09:49;100071.44;;;13.80;76.05
23059;BME280;30585;51.502;7.218;2023-09-19T04:12:19;100066.72;;;13.82;76.60
23059;BME280;30585;51.502;7.218;2023-09-19T04:14:47;100066.00;;;13.80;77.06
23059;BME280;30585;51.502;7.218;2023-09-19T04:17:17;100069.56;;;13.80;77.04
23059;BME280;30585;51.502;7.218;2023-09-19T04:19:45;100070.75;;;13.78;76.11
23059;BME280;30585;51.502;7.218;2023-09-19T04:22:13;100005.44;;;13.42;76.50
23059;BME280;30585;51.502;7.218;2023-09-19T04:24:41;100072.75;;;13.76;76.14
23059;BME280;30585;51.502;7.218;2023-09-19T04:27:09;100080.75;;;13.77;76.66
23059;BME280;30585;51.502;7.218;2023-09-19T04:29:38;100079.03;;;13.76;76.53
23059;BME280;30585;51.502;7.218;2023-09-19T04:32:07;100074.59;;;13.75;76.95
23059;BME280;30585;51.502;7.218;2023-09-19T04:34:37;100076.19;;;13.68;76.66
23059;BME280;30585;51.502;7.218;2023-09-19T04:37:05;100069.03;;;13.67;76.84
23059;BME280;30585;51.502;7.218;2023-09-19T04:39:33;100073.03;;;13.73;77.00
23059;BME280;30585;51.502;7.218;2023-09-19T04:42:01;100077.47;;;13.64;77.12
23059;BME280;30585;51.502;7.218;2023-09-19T04:44:29;100083.16;;;13.61;77.50
23059;BME280;30585;51.502;7.218;2023-09-19T04:46:57;100074.31;;;13.59;77.47
23059;BME280;30585;51.502;7.218;2023-09-19T04:49:26;100080.75;;;13.58;77.85
23059;BME280;30585;51.502;7.218;2023-09-19T04:51:55;100083.03;;;13.62;77.54
23059;BME280;30585;51.502;7.218;2023-09-19T04:54:23;100079.03;;;13.66;77.25
23059;BME280;30585;51.502;7.218;2023-09-19T04:56:51;100082.16;;;13.62;77.50
23059;BME280;30585;51.502;7.218;2023-09-19T04:59:19;100087.88;;;13.59;77.98
23059;BME280;30585;51.502;7.218;2023-09-19T05:01:47;100090.16;;;13.63;77.27
23059;BME280;30585;51.502;7.218;2023-09-19T05:04:15;100090.72;;;13.67;77.72
23059;BME280;30585;51.502;7.218;2023-09-19T05:06:42;100092.72;;;13.65;77.44
23059;BME280;30585;51.502;7.218;2023-09-19T05:09:14;100094.72;;;13.63;77.69
23059;BME280;30585;51.502;7.218;2023-09-19T05:11:42;99961.94;;;12.76;77.45
23059;BME280;30585;51.502;7.218;2023-09-19T05:14:10;100111.72;;;13.65;78.09
23059;BME280;30585;51.502;7.218;2023-09-19T05:16:38;100093.59;;;13.46;78.21
23059;BME280;30585;51.502;7.218;2023-09-19T05:19:07;100119.41;;;13.60;78.53
23059;BME280;30585;51.502;7.218;2023-09-19T05:21:38;100115.69;;;13.61;78.26
23059;BME280;30585;51.502;7.218;2023-09-19T05:24:06;100127.97;;;13.65;78.35
23059;BME280;30585;51.502;7.218;2023-09-19T05:26:38;100129.97;;;13.63;78.37
23059;BME280;30585;51.502;7.218;2023-09-19T05:29:06;100143.25;;;13.66;78.00
23059;BME280;30585;51.502;7.218;2023-09-19T05:31:34;100148.69;;;13.66;78.14
23059;BME280;30585;51.502;7.218;2023-09-19T05:34:03;100152.09;;;13.68;78.44
23059;BME280;30585;51.502;7.218;2023-09-19T05:36:30;100074.31;;;13.20;78.52
23059;BME280;30585;51.502;7.218;2023-09-19T05:38:58;100153.38;;;13.64;78.44
23059;BME280;30585;51.502;7.218;2023-09-19T05:41:26;100156.66;;;13.67;78.37
23059;BME280;30585;51.502;7.218;2023-09-19T05:43:55;100164.09;;;13.75;77.87
23059;BME280;30585;51.502;7.218;2023-09-19T05:46:23;100162.66;;;13.71;78.06
23059;BME280;30585;51.502;7.218;2023-09-19T05:48:53;100162.38;;;13.74;78.04
23059;BME280;30585;51.502;7.218;2023-09-19T05:51:23;100169.66;;;13.74;77.92
23059;BME280;30585;51.502;7.218;2023-09-19T05:53:51;100091.00;;;13.35;77.49
23059;BME280;30585;51.502;7.218;2023-09-19T05:56:21;100169.06;;;13.80;77.55
23059;BME280;30585;51.502;7.218;2023-09-19T05:58:49;100133.13;;;13.49;77.81
23059;BME280;30585;51.502;7.218;2023-09-19T06:01:20;100175.78;;;13.85;77.50
23059;BME280;30585;51.502;7.218;2023-09-19T06:03:48;100182.50;;;13.91;77.29
23059;BME280;30585;51.502;7.218;2023-09-19T06:06:15;100174.22;;;13.92;77.49
23059;BME280;30585;51.502;7.218;2023-09-19T06:08:43;100184.78;;;13.95;77.00
23059;BME280;30585;51.502;7.218;2023-09-19T06:11:12;100186.50;;;13.96;77.31
23059;BME280;30585;51.502;7.218;2023-09-19T06:13:39;100188.06;;;13.99;76.96
23059;BME280;30585;51.502;7.218;2023-09-19T06:16:08;100177.63;;;14.04;77.06
23059;BME280;30585;51.502;7.218;2023-09-19T06:18:37;100179.34;;;14.05;76.36
23059;BME280;30585;51.502;7.218;2023-09-19T06:21:05;100121.97;;;13.81;76.92
23059;BME280;30585;51.502;7.218;2023-09-19T06:23:34;100108.28;;;13.73;75.77
23059;BME280;30585;51.502;7.218;2023-09-19T06:26:02;100174.91;;;14.14;75.57
23059;BME280;30585;51.502;7.218;2023-09-19T06:28:33;100180.06;;;14.17;75.92
23059;BME280;30585;51.502;7.218;2023-09-19T06:31:02;100178.78;;;14.21;75.22
23059;BME280;30585;51.502;7.218;2023-09-19T06:33:34;100180.03;;;14.26;76.31
23059;BME280;30585;51.502;7.218;2023-09-19T06:36:07;100179.16;;;14.26;75.55
23059;BME280;30585;51.502;7.218;2023-09-19T06:38:34;100184.00;;;14.32;75.84
23059;BME280;30585;51.502;7.218;2023-09-19T06:41:03;100186.59;;;14.33;75.10
23059;BME280;30585;51.502;7.218;2023-09-19T06:43:33;100189.44;;;14.32;75.41
23059;BME280;30585;51.502;7.218;2023-09-19T06:46:01;100183.72;;;14.35;75.96
23059;BME280;30585;51.502;7.218;2023-09-19T06:48:30;100178.88;;;14.29;75.93
23059;BME280;30585;51.502;7.218;2023-09-19T06:51:00;100180.59;;;14.40;75.80
23059;BME280;30585;51.502;7.218;2023-09-19T06:53:32;100188.47;;;14.43;75.88
23059;BME280;30585;51.502;7.218;2023-09-19T06:56:02;100189.00;;;14.46;75.06
23059;BME280;30585;51.502;7.218;2023-09-19T06:58:30;100186.00;;;14.49;75.89
23059;BME280;30585;51.502;7.218;2023-09-19T07:00:59;100178.31;;;14.35;74.38
23059;BME280;30585;51.502;7.218;2023-09-19T07:03:26;100200.72;;;14.47;75.36
23059;BME280;30585;51.502;7.218;2023-09-19T07:05:55;100195.47;;;14.45;75.33
23059;BME280;30585;51.502;7.218;2023-09-19T07:08:25;100194.72;;;14.53;75.21
23059;BME280;30585;51.502;7.218;2023-09-19T07:10:56;100191.84;;;14.54;74.47
23059;BME280;30585;51.502;7.218;2023-09-19T07:13:24;100089.84;;;13.95;74.87
23059;BME280;30585;51.502;7.218;2023-09-19T07:15:52;100155.16;;;14.31;74.75
23059;BME280;30585;51.502;7.218;2023-09-19T07:18:21;100183.00;;;14.52;74.84
23059;BME280;30585;51.502;7.218;2023-09-19T07:20:48;100199.13;;;14.63;75.39
23059;BME280;30585;51.502;7.218;2023-09-19T07:23:17;100117.22;;;14.02;75.85
23059;BME280;30585;51.502;7.218;2023-09-19T07:25:47;100219.22;;;14.80;74.79
23059;BME280;30585;51.502;7.218;2023-09-19T07:28:17;100149.44;;;14.34;74.63
23059;BME280;30585;51.502;7.218;2023-09-19T07:30:45;100211.63;;;14.84;75.12
23059;BME280;30585;51.502;7.218;2023-09-19T07:33:13;100221.78;;;14.82;75.22
23059;BME280;30585;51.502;7.218;2023-09-19T07:35:45;100213.91;;;14.88;74.16
23059;BME280;30585;51.502;7.218;2023-09-19T07:38:13;100213.06;;;14.88;74.65
23059;BME280;30585;51.502;7.218;2023-09-19T07:40:41;100211.72;;;14.92;74.73
23059;BME280;30585;51.502;7.218;2023-09-19T07:43:09;100199.25;;;14.99;75.16
23059;BME280;30585;51.502;7.218;2023-09-19T07:45:38;100217.00;;;15.03;74.18
23059;BME280;30585;51.502;7.218;2023-09-19T07:48:07;100214.13;;;15.04;74.58
23059;BME280;30585;51.502;7.218;2023-09-19T07:51:02;100211.19;;;15.16;74.62
23059;BME280;30585;51.502;7.218;2023-09-19T07:53:30;100217.31;;;15.27;73.55
23059;BME280;30585;51.502;7.218;2023-09-19T07:56:05;100186.88;;;15.14;74.27
23059;BME280;30585;51.502;7.218;2023-09-19T07:58:33;100229.75;;;15.30;73.45
23059;BME280;30585;51.502;7.218;2023-09-19T08:01:05;100103.94;;;14.65;73.41
23059;BME280;30585;51.502;7.218;2023-09-19T08:03:34;100223.63;;;15.46;73.33
23059;BME280;30585;51.502;7.218;2023-09-19T08:06:07;100239.16;;;15.35;73.31
23059;BME280;30585;51.502;7.218;2023-09-19T08:08:35;100235.78;;;15.51;74.63
23059;BME280;30585;51.502;7.218;2023-09-19T08:11:04;100233.16;;;15.59;73.74
23059;BME280;30585;51.502;7.218;2023-09-19T08:13:38;100234.00;;;15.60;73.63
23059;BME280;30585;51.502;7.218;2023-09-19T08:16:11;100237.06;;;15.57;74.03
23059;BME280;30585;51.502;7.218;2023-09-19T08:18:39;100240.19;;;15.52;73.03
23059;BME280;30585;51.502;7.218;2023-09-19T08:21:08;100249.16;;;15.62;73.43
23059;BME280;30585;51.502;7.218;2023-09-19T08:23:37;100251.44;;;15.67;72.88
23059;BME280;30585;51.502;7.218;2023-09-19T08:26:06;100156.19;;;15.04;73.23
23059;BME280;30585;51.502;7.218;2023-09-19T08:28:35;100268.31;;;15.70;72.58
23059;BME280;30585;51.502;7.218;2023-09-19T08:31:03;100251.38;;;15.49;72.89
23059;BME280;30585;51.502;7.218;2023-09-19T08:33:34;100218.78;;;15.39;72.92
23059;BME280;30585;51.502;7.218;2023-09-19T08:36:03;100252.63;;;15.82;72.92
23059;BME280;30585;51.502;7.218;2023-09-19T08:38:33;100200.31;;;15.70;72.74
23059;BME280;30585;51.502;7.218;2023-09-19T08:41:05;100259.50;;;16.04;72.04
23059;BME280;30585;51.502;7.218;2023-09-19T08:43:33;100227.00;;;16.02;71.30
23059;BME280;30585;51.502;7.218;2023-09-19T08:46:09;100241.34;;;16.13;71.33
23059;BME280;30585;51.502;7.218;2023-09-19T08:48:45;100260.94;;;16.34;71.81
23059;BME280;30585;51.502;7.218;2023-09-19T08:51:18;100247.34;;;16.16;71.34
23059;BME280;30585;51.502;7.218;2023-09-19T08:53:52;100270.97;;;16.33;70.84
23059;BME280;30585;51.502;7.218;2023-09-19T08:56:22;100252.69;;;16.44;71.14
23059;BME280;30585;51.502;7.218;2023-09-19T08:58:55;100252.22;;;16.48;69.76
23059;BME280;30585;51.502;7.218;2023-09-19T09:01:26;100261.09;;;16.68;71.02
23059;BME280;30585;51.502;7.218;2023-09-19T09:03:57;100264.16;;;16.73;70.20
23059;BME280;30585;51.502;7.218;2023-09-19T09:06:26;100261.28;;;16.74;68.79
23059;BME280;30585;51.502;7.218;2023-09-19T09:08:55;100268.34;;;16.85;69.01
23059;BME280;30585;51.502;7.218;2023-09-19T09:11:22;100261.47;;;16.55;69.05
23059;BME280;30585;51.502;7.218;2023-09-19T09:13:51;100257.53;;;16.75;68.73
23059;BME280;30585;51.502;7.218;2023-09-19T09:16:19;100263.75;;;17.12;69.87
23059;BME280;30585;51.502;7.218;2023-09-19T09:18:47;100254.91;;;17.18;68.67
23059;BME280;30585;51.502;7.218;2023-09-19T09:21:21;100253.09;;;17.00;67.04
23059;BME280;30585;51.502;7.218;2023-09-19T09:23:49;100166.50;;;16.34;67.33
23059;BME280;30585;51.502;7.218;2023-09-19T09:26:40;100258.72;;;16.99;68.07
23059;BME280;30585;51.502;7.218;2023-09-19T09:29:09;100252.47;;;17.06;66.82
23059;BME280;30585;51.502;7.218;2023-09-19T09:31:37;100244.28;;;17.06;65.65
23059;BME280;30585;51.502;7.218;2023-09-19T09:34:06;100253.78;;;17.28;66.38
23059;BME280;30585;51.502;7.218;2023-09-19T09:36:36;100245.75;;;17.27;66.36
23059;BME280;30585;51.502;7.218;2023-09-19T09:39:05;100190.72;;;16.97;65.00
23059;BME280;30585;51.502;7.218;2023-09-19T09:41:44;100247.56;;;17.18;64.46
23059;BME280;30585;51.502;7.218;2023-09-19T09:44:13;100257.91;;;17.06;64.43
23059;BME280;30585;51.502;7.218;2023-09-19T09:46:43;100243.50;;;17.22;64.93
23059;BME280;30585;51.502;7.218;2023-09-19T09:49:48;100259.72;;;17.24;64.73
23059;BME280;30585;51.502;7.218;2023-09-19T09:52:22;100257.25;;;17.47;63.76
23059;BME280;30585;51.502;7.218;2023-09-19T09:54:59;100268.41;;;17.27;63.56
23059;BME280;30585;51.502;7.218;2023-09-19T09:57:28;100247.34;;;17.46;65.39
23059;BME280;30585;51.502;7.218;2023-09-19T09:59:57;100221.47;;;17.50;63.89
23059;BME280;30585;51.502;7.218;2023-09-19T10:02:42;100155.66;;;16.94;62.49
23059;BME280;30585;51.502;7.218;2023-09-19T10:05:14;100248.34;;;17.79;64.32
23059;BME280;30585;51.502;7.218;2023-09-19T10:07:50;100234.53;;;17.80;63.56
23059;BME280;30585;51.502;7.218;2023-09-19T10:10:30;100254.53;;;17.97;62.85
23059;BME280;30585;51.502;7.218;2023-09-19T10:13:06;100217.72;;;17.51;63.28
23059;BME280;30585;51.502;7.218;2023-09-19T10:15:42;100185.16;;;17.07;62.71
23059;BME280;30585;51.502;7.218;2023-09-19T10:18:14;100214.34;;;17.65;63.76
23059;BME280;30585;51.502;7.218;2023-09-19T10:20:45;100245.84;;;18.01;63.38
23059;BME280;30585;51.502;7.218;2023-09-19T10:23:17;100227.41;;;18.44;63.71
23059;BME280;30585;51.502;7.218;2023-09-19T10:25:50;100227.94;;;18.48;60.90
23059;BME280;30585;51.502;7.218;2023-09-19T10:28:20;100214.28;;;18.48;61.20
23059;BME280;30585;51.502;7.218;2023-09-19T10:30:51;100238.38;;;18.68;60.37
23059;BME280;30585;51.502;7.218;2023-09-19T10:33:21;100214.63;;;18.20;61.69
23059;BME280;30585;51.502;7.218;2023-09-19T10:35:53;100227.44;;;18.52;62.48
23059;BME280;30585;51.502;7.218;2023-09-19T10:38:26;100208.31;;;18.52;62.40
23059;BME280;30585;51.502;7.218;2023-09-19T10:40:56;100205.56;;;18.68;61.67
23059;BME280;30585;51.502;7.218;2023-09-19T10:43:29;100224.66;;;18.93;59.10
23059;BME280;30585;51.502;7.218;2023-09-19T10:46:03;100212.72;;;18.37;59.60
23059;BME280;30585;51.502;7.218;2023-09-19T10:48:32;100232.53;;;18.55;60.39
23059;BME280;30585;51.502;7.218;2023-09-19T10:51:05;100226.66;;;19.07;60.27
23059;BME280;30585;51.502;7.218;2023-09-19T10:53:45;100196.63;;;18.83;59.38
23059;BME280;30585;51.502;7.218;2023-09-19T10:56:21;100221.41;;;18.97;59.10
23059;BME280;30585;51.502;7.218;2023-09-19T10:58:51;100221.44;;;18.73;57.14
23059;BME280;30585;51.502;7.218;2023-09-19T11:01:19;100182.00;;;18.51;58.17
23059;BME280;30585;51.502;7.218;2023-09-19T11:03:48;100212.44;;;19.11;57.60
23059;BME280;30585;51.502;7.218;2023-09-19T11:06:20;100150.16;;;18.83;57.86
23059;BME280;30585;51.502;7.218;2023-09-19T11:08:55;100199.13;;;19.00;57.06
23059;BME280;30585;51.502;7.218;2023-09-19T11:11:45;100206.38;;;18.77;59.83
23059;BME280;30585;51.502;7.218;2023-09-19T11:14:30;100205.72;;;18.75;57.37
23059;BME280;30585;51.502;7.218;2023-09-19T11:20:31;100201.16;;;19.15;57.28
23059;BME280;30585;51.502;7.218;2023-09-19T11:23:21;100220.13;;;19.16;57.36
23059;BME280;30585;51.502;7.218;2023-09-19T11:25:55;100211.25;;;19.14;56.57
23059;BME280;30585;51.502;7.218;2023-09-19T11:28:35;100217.69;;;19.21;57.02
23059;BME280;30585;51.502;7.218;2023-09-19T11:34:42;100210.06;;;19.56;56.98
23059;BME280;30585;51.502;7.218;2023-09-19T11:40:29;100200.78;;;19.65;56.51
23059;BME280;30585;51.502;7.218;2023-09-19T11:42:58;100222.50;;;19.89;55.81
23059;BME280;30585;51.502;7.218;2023-09-19T11:48:32;100215.59;;;20.01;55.44
23059;BME280;30585;51.502;7.218;2023-09-19T11:51:10;100206.81;;;19.83;55.41
23059;BME280;30585;51.502;7.218;2023-09-19T11:53:43;100232.97;;;19.46;54.47
23059;BME280;30585;51.502;7.218;2023-09-19T11:56:11;100214.84;;;19.45;54.48
23059;BME280;30585;51.502;7.218;2023-09-19T11:58:43;100213.53;;;19.72;54.63
23059;BME280;30585;51.502;7.218;2023-09-19T12:01:15;100219.56;;;19.68;55.38
23059;BME280;30585;51.502;7.218;2023-09-19T12:03:52;100218.50;;;19.77;56.55
23059;BME280;30585;51.502;7.218;2023-09-19T12:06:21;100222.47;;;20.20;57.03
23059;BME280;30585;51.502;7.218;2023-09-19T12:08:50;100223.00;;;19.93;53.20
23059;BME280;30585;51.502;7.218;2023-09-19T12:11:21;100210.34;;;19.92;54.81
23059;BME280;30585;51.502;7.218;2023-09-19T12:13:51;100158.28;;;19.69;54.47
23059;BME280;30585;51.502;7.218;2023-09-19T12:16:20;100203.34;;;19.89;54.03
23059;BME280;30585;51.502;7.218;2023-09-19T12:18:51;100192.69;;;19.32;55.94
23059;BME280;30585;51.502;7.218;2023-09-19T12:21:28;100188.72;;;19.74;55.14
23059;BME280;30585;51.502;7.218;2023-09-19T12:23:59;100192.63;;;19.79;55.09
23059;BME280;30585;51.502;7.218;2023-09-19T12:26:27;100189.47;;;19.91;53.47
23059;BME280;30585;51.502;7.218;2023-09-19T12:28:57;100185.63;;;19.77;52.03
23059;BME280;30585;51.502;7.218;2023-09-19T12:31:25;100177.88;;;19.50;53.00
23059;BME280;30585;51.502;7.218;2023-09-19T12:33:54;100194.66;;;19.86;54.57
23059;BME280;30585;51.502;7.218;2023-09-19T12:36:23;100144.25;;;19.72;52.61
23059;BME280;30585;51.502;7.218;2023-09-19T12:38:56;100175.75;;;20.13;51.91
23059;BME280;30585;51.502;7.218;2023-09-19T12:41:26;100133.72;;;20.06;50.94
23059;BME280;30585;51.502;7.218;2023-09-19T12:43:54;100180.53;;;19.97;50.72
23059;BME280;30585;51.502;7.218;2023-09-19T12:46:23;100177.19;;;20.09;51.21
23059;BME280;30585;51.502;7.218;2023-09-19T12:49:17;100116.00;;;19.94;51.05
23059;BME280;30585;51.502;7.218;2023-09-19T12:51:46;100169.25;;;20.37;50.61
23059;BME280;30585;51.502;7.218;2023-09-19T12:54:14;100158.22;;;20.23;50.11
23059;BME280;30585;51.502;7.218;2023-09-19T12:56:44;100155.47;;;20.60;50.76
23059;BME280;30585;51.502;7.218;2023-09-19T12:59:15;100160.22;;;21.10;50.41
23059;BME280;30585;51.502;7.218;2023-09-19T13:01:45;100155.59;;;21.11;49.80
23059;BME280;30585;51.502;7.218;2023-09-19T13:04:16;100171.41;;;20.94;49.18
23059;BME280;30585;51.502;7.218;2023-09-19T13:06:48;100177.34;;;20.83;50.40
23059;BME280;30585;51.502;7.218;2023-09-19T13:09:17;100125.34;;;19.85;49.23
23059;BME280;30585;51.502;7.218;2023-09-19T13:11:47;100159.00;;;20.54;47.73
23059;BME280;30585;51.502;7.218;2023-09-19T13:14:19;100166.38;;;20.31;49.15
23059;BME280;30585;51.502;7.218;2023-09-19T13:16:59;100148.47;;;21.02;50.82
23059;BME280;30585;51.502;7.218;2023-09-19T13:19:36;100158.03;;;21.35;50.96
23059;BME280;30585;51.502;7.218;2023-09-19T13:22:04;100153.13;;;21.45;49.78
23059;BME280;30585;51.502;7.218;2023-09-19T13:24:32;100162.59;;;21.13;50.29